Fort Hamilton, New York
Current Conditions -  °F | °C
As of 3:51 PM on Sunday 23 Nov 2014 (Local Time) from KEWR Reporting Station
Broken Clouds Broken Clouds  
Wind Chill: 55°   Ceiling: 20000
Heat Index: 55°   Visibility: 10mi
Dew Point: 26°   Wind: 6mph
Humidity: 32%   Direction: 190°S
Pressure: 30.13"   Gusts: NA
Location:  40.6061°N, 74.0291°W
Report Text: KEWR 232051Z 19005KT 10SM FEW150 BKN200 BKN250 13/M03 A3013 RMK AO2 SLP203 T01301033 56003
Loading
Personal Weather Stations






























Interactive Weather Map New forecast layout! Learn more

10-Day Weather Forecast

Advertisements
Track Severe Weather on mobile